sensor_id;sensor_type;location;lat;lon;timestamp;noise_LAeq;noise_LA_min;noise_LA_max;noise_LA01;noise_LA95
67300;Laerm;57658;51.436;5.980;2023-05-29T00:00:07;53.35;33.97;66.15;;
67300;Laerm;57658;51.436;5.980;2023-05-29T00:00:18;38.97;32.48;48.82;;
67300;Laerm;57658;51.436;5.980;2023-05-29T00:00:29;38.73;32.23;47.33;;
67300;Laerm;57658;51.436;5.980;2023-05-29T00:00:39;43.13;32.88;54.08;;
67300;Laerm;57658;51.436;5.980;2023-05-29T00:00:50;49.96;38.11;62.38;;
67300;Laerm;57658;51.436;5.980;2023-05-29T00:01:01;43.34;36.56;56.27;;
67300;Laerm;57658;51.436;5.980;2023-05-29T00:01:12;37.58;33.90;44.30;;
67300;Laerm;57658;51.436;5.980;2023-05-29T00:01:22;39.32;34.22;52.27;;
67300;Laerm;57658;51.436;5.980;2023-05-29T00:01:34;37.27;34.79;43.60;;
67300;Laerm;57658;51.436;5.980;2023-05-29T00:01:46;41.15;35.98;47.31;;
67300;Laerm;57658;51.436;5.980;2023-05-29T00:01:56;52.55;45.62;58.37;;
67300;Laerm;57658;51.436;5.980;2023-05-29T00:02:06;48.47;38.90;55.44;;
67300;Laerm;57658;51.436;5.980;2023-05-29T00:02:16;38.05;34.70;45.75;;
67300;Laerm;57658;51.436;5.980;2023-05-29T00:02:27;40.63;34.70;50.49;;
67300;Laerm;57658;51.436;5.980;2023-05-29T00:02:37;38.94;34.49;49.44;;
67300;Laerm;57658;51.436;5.980;2023-05-29T00:02:48;42.42;35.09;54.17;;
67300;Laerm;57658;51.436;5.980;2023-05-29T00:02:59;44.19;36.47;55.90;;
67300;Laerm;57658;51.436;5.980;2023-05-29T00:03:09;44.27;34.24;59.03;;
67300;Laerm;57658;51.436;5.980;2023-05-29T00:03:19;37.87;33.03;52.22;;
67300;Laerm;57658;51.436;5.980;2023-05-29T00:03:30;43.96;33.76;54.80;;
67300;Laerm;57658;51.436;5.980;2023-05-29T00:03:43;40.71;33.37;56.99;;
67300;Laerm;57658;51.436;5.980;2023-05-29T00:03:53;38.30;32.91;49.21;;
67300;Laerm;57658;51.436;5.980;2023-05-29T00:04:03;42.74;34.32;55.12;;
67300;Laerm;57658;51.436;5.980;2023-05-29T00:04:13;49.52;37.35;60.99;;
67300;Laerm;57658;51.436;5.980;2023-05-29T00:04:24;46.99;37.43;61.44;;
67300;Laerm;57658;51.436;5.980;2023-05-29T00:04:34;44.47;37.81;58.41;;
67300;Laerm;57658;51.436;5.980;2023-05-29T00:04:46;40.87;35.98;52.46;;
67300;Laerm;57658;51.436;5.980;2023-05-29T00:04:57;38.79;34.78;50.16;;
67300;Laerm;57658;51.436;5.980;2023-05-29T00:05:07;46.98;34.80;59.11;;
67300;Laerm;57658;51.436;5.980;2023-05-29T00:05:17;46.00;36.00;55.27;;
67300;Laerm;57658;51.436;5.980;2023-05-29T00:05:28;41.21;34.02;55.81;;
67300;Laerm;57658;51.436;5.980;2023-05-29T00:05:38;37.83;33.65;45.31;;
67300;Laerm;57658;51.436;5.980;2023-05-29T00:05:48;35.54;33.49;42.55;;
67300;Laerm;57658;51.436;5.980;2023-05-29T00:06:01;41.59;33.52;53.51;;
67300;Laerm;57658;51.436;5.980;2023-05-29T00:06:11;36.56;33.35;42.79;;
67300;Laerm;57658;51.436;5.980;2023-05-29T00:06:22;35.24;33.08;42.66;;
67300;Laerm;57658;51.436;5.980;2023-05-29T00:06:33;35.24;32.73;42.00;;
67300;Laerm;57658;51.436;5.980;2023-05-29T00:06:43;35.09;33.23;41.48;;
67300;Laerm;57658;51.436;5.980;2023-05-29T00:06:54;35.95;33.37;40.57;;
67300;Laerm;57658;51.436;5.980;2023-05-29T00:07:05;38.50;35.33;47.89;;
67300;Laerm;57658;51.436;5.980;2023-05-29T00:07:16;47.25;35.01;59.85;;
67300;Laerm;57658;51.436;5.980;2023-05-29T00:07:26;42.18;33.81;55.06;;
67300;Laerm;57658;51.436;5.980;2023-05-29T00:07:38;37.37;33.20;43.41;;
67300;Laerm;57658;51.436;5.980;2023-05-29T00:07:48;39.79;33.48;50.33;;
67300;Laerm;57658;51.436;5.980;2023-05-29T00:08:00;38.68;33.57;47.88;;
67300;Laerm;57658;51.436;5.980;2023-05-29T00:08:10;37.76;34.85;43.67;;
67300;Laerm;57658;51.436;5.980;2023-05-29T00:08:21;36.21;35.03;38.19;;
67300;Laerm;57658;51.436;5.980;2023-05-29T00:08:31;35.24;33.06;39.69;;
67300;Laerm;57658;51.436;5.980;2023-05-29T00:08:42;36.11;32.72;44.94;;
67300;Laerm;57658;51.436;5.980;2023-05-29T00:08:52;36.66;33.51;46.24;;
67300;Laerm;57658;51.436;5.980;2023-05-29T00:09:02;37.12;33.19;47.43;;
67300;Laerm;57658;51.436;5.980;2023-05-29T00:09:12;36.64;33.36;44.56;;
67300;Laerm;57658;51.436;5.980;2023-05-29T00:09:23;40.08;34.07;51.23;;
67300;Laerm;57658;51.436;5.980;2023-05-29T00:09:33;42.57;34.07;53.94;;
67300;Laerm;57658;51.436;5.980;2023-05-29T00:09:43;42.65;34.31;56.23;;
67300;Laerm;57658;51.436;5.980;2023-05-29T00:09:53;38.16;34.82;46.90;;
67300;Laerm;57658;51.436;5.980;2023-05-29T00:10:04;39.76;34.52;49.45;;
67300;Laerm;57658;51.436;5.980;2023-05-29T00:10:15;40.42;34.99;51.60;;
67300;Laerm;57658;51.436;5.980;2023-05-29T00:10:26;37.09;33.91;42.45;;
67300;Laerm;57658;51.436;5.980;2023-05-29T00:10:36;40.86;35.60;47.90;;
67300;Laerm;57658;51.436;5.980;2023-05-29T00:10:47;48.95;36.61;58.67;;
67300;Laerm;57658;51.436;5.980;2023-05-29T00:10:57;41.99;35.76;50.76;;
67300;Laerm;57658;51.436;5.980;2023-05-29T00:11:08;45.10;37.83;60.81;;
67300;Laerm;57658;51.436;5.980;2023-05-29T00:11:18;46.67;38.79;56.33;;
67300;Laerm;57658;51.436;5.980;2023-05-29T00:11:28;42.54;37.99;50.14;;
67300;Laerm;57658;51.436;5.980;2023-05-29T00:11:40;55.47;37.65;66.93;;
67300;Laerm;57658;51.436;5.980;2023-05-29T00:11:50;40.02;36.65;49.57;;
67300;Laerm;57658;51.436;5.980;2023-05-29T00:12:02;42.51;35.74;56.22;;
67300;Laerm;57658;51.436;5.980;2023-05-29T00:12:12;45.07;35.80;61.11;;
67300;Laerm;57658;51.436;5.980;2023-05-29T00:12:23;48.52;34.83;65.29;;
67300;Laerm;57658;51.436;5.980;2023-05-29T00:12:34;45.04;35.59;62.92;;
67300;Laerm;57658;51.436;5.980;2023-05-29T00:12:45;41.84;34.52;57.08;;
67300;Laerm;57658;51.436;5.980;2023-05-29T00:12:55;44.50;38.82;53.99;;
67300;Laerm;57658;51.436;5.980;2023-05-29T00:13:06;53.00;39.45;63.65;;
67300;Laerm;57658;51.436;5.980;2023-05-29T00:13:16;46.43;37.73;57.32;;
67300;Laerm;57658;51.436;5.980;2023-05-29T00:13:27;60.75;48.84;66.43;;
67300;Laerm;57658;51.436;5.980;2023-05-29T00:13:37;51.03;43.18;58.06;;
67300;Laerm;57658;51.436;5.980;2023-05-29T00:13:47;54.11;44.44;61.19;;
67300;Laerm;57658;51.436;5.980;2023-05-29T00:13:58;43.20;37.97;49.65;;
67300;Laerm;57658;51.436;5.980;2023-05-29T00:14:08;44.11;38.51;55.73;;
67300;Laerm;57658;51.436;5.980;2023-05-29T00:14:22;49.69;37.73;66.00;;
67300;Laerm;57658;51.436;5.980;2023-05-29T00:14:33;42.61;36.27;58.91;;
67300;Laerm;57658;51.436;5.980;2023-05-29T00:14:44;39.20;35.73;45.96;;
67300;Laerm;57658;51.436;5.980;2023-05-29T00:14:54;41.83;35.98;49.13;;
67300;Laerm;57658;51.436;5.980;2023-05-29T00:15:05;41.90;36.86;52.72;;
67300;Laerm;57658;51.436;5.980;2023-05-29T00:15:15;53.34;35.88;72.12;;
67300;Laerm;57658;51.436;5.980;2023-05-29T00:15:26;44.24;36.69;54.11;;
67300;Laerm;57658;51.436;5.980;2023-05-29T00:15:36;42.61;37.97;55.04;;
67300;Laerm;57658;51.436;5.980;2023-05-29T00:15:46;44.42;37.25;53.95;;
67300;Laerm;57658;51.436;5.980;2023-05-29T00:15:57;47.66;36.72;58.80;;
67300;Laerm;57658;51.436;5.980;2023-05-29T00:16:09;47.09;36.77;59.24;;
67300;Laerm;57658;51.436;5.980;2023-05-29T00:16:19;42.50;35.54;54.24;;
67300;Laerm;57658;51.436;5.980;2023-05-29T00:16:29;41.47;35.55;50.50;;
67300;Laerm;57658;51.436;5.980;2023-05-29T00:16:40;41.27;35.14;52.08;;
67300;Laerm;57658;51.436;5.980;2023-05-29T00:16:50;45.41;36.01;56.45;;
67300;Laerm;57658;51.436;5.980;2023-05-29T00:17:01;39.87;34.78;56.42;;
67300;Laerm;57658;51.436;5.980;2023-05-29T00:17:12;37.83;33.64;51.96;;
67300;Laerm;57658;51.436;5.980;2023-05-29T00:17:25;36.60;33.51;45.98;;
67300;Laerm;57658;51.436;5.980;2023-05-29T00:17:35;38.84;32.97;48.97;;
67300;Laerm;57658;51.436;5.980;2023-05-29T00:17:45;36.26;34.52;39.35;;
67300;Laerm;57658;51.436;5.980;2023-05-29T00:17:56;36.64;35.06;44.75;;
67300;Laerm;57658;51.436;5.980;2023-05-29T00:18:06;47.28;35.57;61.40;;
67300;Laerm;57658;51.436;5.980;2023-05-29T00:18:17;43.25;35.87;54.91;;
67300;Laerm;57658;51.436;5.980;2023-05-29T00:18:27;39.65;34.94;49.45;;
67300;Laerm;57658;51.436;5.980;2023-05-29T00:18:37;39.44;34.81;48.55;;
67300;Laerm;57658;51.436;5.980;2023-05-29T00:18:55;39.80;35.29;52.09;;
67300;Laerm;57658;51.436;5.980;2023-05-29T00:19:05;35.64;33.61;37.62;;
67300;Laerm;57658;51.436;5.980;2023-05-29T00:19:16;37.33;34.04;47.91;;
67300;Laerm;57658;51.436;5.980;2023-05-29T00:19:27;46.45;37.65;56.97;;
67300;Laerm;57658;51.436;5.980;2023-05-29T00:19:37;49.29;38.41;61.61;;
67300;Laerm;57658;51.436;5.980;2023-05-29T00:19:47;47.41;37.40;57.92;;
67300;Laerm;57658;51.436;5.980;2023-05-29T00:19:58;41.91;37.45;50.45;;
67300;Laerm;57658;51.436;5.980;2023-05-29T00:20:09;44.09;37.07;54.95;;
67300;Laerm;57658;51.436;5.980;2023-05-29T00:20:20;44.91;37.33;55.93;;
67300;Laerm;57658;51.436;5.980;2023-05-29T00:20:30;39.28;36.30;46.55;;
67300;Laerm;57658;51.436;5.980;2023-05-29T00:20:44;39.29;36.80;45.22;;
67300;Laerm;57658;51.436;5.980;2023-05-29T00:20:54;52.33;37.37;66.22;;
67300;Laerm;57658;51.436;5.980;2023-05-29T00:21:05;47.84;36.97;59.00;;
67300;Laerm;57658;51.436;5.980;2023-05-29T00:21:16;53.16;41.12;65.43;;
67300;Laerm;57658;51.436;5.980;2023-05-29T00:21:26;48.18;35.54;63.27;;
67300;Laerm;57658;51.436;5.980;2023-05-29T00:21:37;40.17;35.03;48.96;;
67300;Laerm;57658;51.436;5.980;2023-05-29T00:21:47;42.00;36.76;49.38;;
67300;Laerm;57658;51.436;5.980;2023-05-29T00:21:58;40.49;35.82;51.11;;
67300;Laerm;57658;51.436;5.980;2023-05-29T00:22:08;46.59;38.95;60.43;;
67300;Laerm;57658;51.436;5.980;2023-05-29T00:22:19;46.03;35.75;60.15;;
67300;Laerm;57658;51.436;5.980;2023-05-29T00:22:29;45.35;35.53;59.94;;
67300;Laerm;57658;51.436;5.980;2023-05-29T00:22:39;46.58;36.39;58.63;;
67300;Laerm;57658;51.436;5.980;2023-05-29T00:22:50;37.14;35.32;42.87;;
67300;Laerm;57658;51.436;5.980;2023-05-29T00:23:00;42.48;36.99;48.43;;
67300;Laerm;57658;51.436;5.980;2023-05-29T00:23:12;53.68;40.34;59.88;;
67300;Laerm;57658;51.436;5.980;2023-05-29T00:23:22;50.93;41.56;58.56;;
67300;Laerm;57658;51.436;5.980;2023-05-29T00:23:33;42.60;37.89;46.94;;
67300;Laerm;57658;51.436;5.980;2023-05-29T00:23:43;37.92;35.08;47.06;;
67300;Laerm;57658;51.436;5.980;2023-05-29T00:23:53;38.09;35.42;46.40;;
67300;Laerm;57658;51.436;5.980;2023-05-29T00:24:03;35.43;33.43;41.70;;
67300;Laerm;57658;51.436;5.980;2023-05-29T00:24:14;35.11;33.51;39.17;;
67300;Laerm;57658;51.436;5.980;2023-05-29T00:24:25;36.08;34.02;40.54;;
67300;Laerm;57658;51.436;5.980;2023-05-29T00:24:35;37.07;34.26;45.02;;
67300;Laerm;57658;51.436;5.980;2023-05-29T00:24:45;47.01;35.02;59.63;;
67300;Laerm;57658;51.436;5.980;2023-05-29T00:24:56;45.46;35.01;55.54;;
67300;Laerm;57658;51.436;5.980;2023-05-29T00:25:06;40.92;34.81;56.51;;
67300;Laerm;57658;51.436;5.980;2023-05-29T00:25:17;41.81;36.39;50.39;;
67300;Laerm;57658;51.436;5.980;2023-05-29T00:25:28;40.57;34.55;47.78;;
67300;Laerm;57658;51.436;5.980;2023-05-29T00:25:38;42.46;34.70;55.33;;
67300;Laerm;57658;51.436;5.980;2023-05-29T00:25:50;49.17;37.88;62.95;;
67300;Laerm;57658;51.436;5.980;2023-05-29T00:26:00;38.16;33.17;46.39;;
67300;Laerm;57658;51.436;5.980;2023-05-29T00:26:10;39.18;32.32;46.74;;
67300;Laerm;57658;51.436;5.980;2023-05-29T00:26:21;42.13;35.54;50.99;;
67300;Laerm;57658;51.436;5.980;2023-05-29T00:26:32;44.11;34.29;57.43;;
67300;Laerm;57658;51.436;5.980;2023-05-29T00:26:42;49.26;33.88;62.06;;
67300;Laerm;57658;51.436;5.980;2023-05-29T00:26:53;45.98;35.63;58.41;;
67300;Laerm;57658;51.436;5.980;2023-05-29T00:27:03;41.86;33.99;52.38;;
67300;Laerm;57658;51.436;5.980;2023-05-29T00:27:13;42.54;33.82;52.03;;
67300;Laerm;57658;51.436;5.980;2023-05-29T00:27:24;39.34;34.43;48.99;;
67300;Laerm;57658;51.436;5.980;2023-05-29T00:27:34;46.95;34.53;60.29;;
67300;Laerm;57658;51.436;5.980;2023-05-29T00:27:45;52.43;36.97;72.61;;
67300;Laerm;57658;51.436;5.980;2023-05-29T00:27:55;42.26;34.74;53.71;;
67300;Laerm;57658;51.436;5.980;2023-05-29T00:28:06;39.40;35.08;48.23;;
67300;Laerm;57658;51.436;5.980;2023-05-29T00:28:17;38.24;33.90;43.89;;
67300;Laerm;57658;51.436;5.980;2023-05-29T00:28:27;42.35;34.50;57.49;;
67300;Laerm;57658;51.436;5.980;2023-05-29T00:28:37;36.78;33.63;42.95;;
67300;Laerm;57658;51.436;5.980;2023-05-29T00:28:48;34.55;32.81;36.59;;
67300;Laerm;57658;51.436;5.980;2023-05-29T00:28:58;39.45;33.12;52.21;;
67300;Laerm;57658;51.436;5.980;2023-05-29T00:29:08;39.27;34.72;48.23;;
67300;Laerm;57658;51.436;5.980;2023-05-29T00:29:19;38.56;33.68;45.15;;
67300;Laerm;57658;51.436;5.980;2023-05-29T00:29:31;42.64;33.18;57.84;;
67300;Laerm;57658;51.436;5.980;2023-05-29T00:29:41;37.66;33.60;46.40;;
67300;Laerm;57658;51.436;5.980;2023-05-29T00:29:51;34.66;32.73;38.52;;
67300;Laerm;57658;51.436;5.980;2023-05-29T00:30:02;33.74;32.28;38.49;;
67300;Laerm;57658;51.436;5.980;2023-05-29T00:30:13;35.65;32.49;45.00;;
67300;Laerm;57658;51.436;5.980;2023-05-29T00:30:23;33.70;32.10;36.27;;
67300;Laerm;57658;51.436;5.980;2023-05-29T00:30:33;34.86;31.46;43.32;;
67300;Laerm;57658;51.436;5.980;2023-05-29T00:30:44;39.68;33.21;50.57;;
67300;Laerm;57658;51.436;5.980;2023-05-29T00:30:54;36.28;33.21;43.39;;
67300;Laerm;57658;51.436;5.980;2023-05-29T00:31:04;49.99;33.21;64.46;;
67300;Laerm;57658;51.436;5.980;2023-05-29T00:31:15;41.41;33.26;54.31;;
67300;Laerm;57658;51.436;5.980;2023-05-29T00:31:25;36.81;32.83;49.39;;
67300;Laerm;57658;51.436;5.980;2023-05-29T00:31:36;35.18;33.61;37.95;;
67300;Laerm;57658;51.436;5.980;2023-05-29T00:31:47;35.57;33.85;39.56;;
67300;Laerm;57658;51.436;5.980;2023-05-29T00:31:57;38.97;35.36;45.47;;
67300;Laerm;57658;51.436;5.980;2023-05-29T00:32:07;35.44;33.60;40.72;;
67300;Laerm;57658;51.436;5.980;2023-05-29T00:32:17;37.05;32.88;48.39;;
67300;Laerm;57658;51.436;5.980;2023-05-29T00:32:28;35.88;33.04;43.19;;
67300;Laerm;57658;51.436;5.980;2023-05-29T00:32:38;42.34;34.22;53.15;;
67300;Laerm;57658;51.436;5.980;2023-05-29T00:32:48;39.95;35.97;47.79;;
67300;Laerm;57658;51.436;5.980;2023-05-29T00:32:59;43.71;37.24;59.03;;
67300;Laerm;57658;51.436;5.980;2023-05-29T00:33:09;58.88;38.73;73.34;;
67300;Laerm;57658;51.436;5.980;2023-05-29T00:33:19;40.01;37.79;49.64;;
67300;Laerm;57658;51.436;5.980;2023-05-29T00:33:30;41.53;37.77;53.14;;
67300;Laerm;57658;51.436;5.980;2023-05-29T00:33:40;41.95;38.01;54.68;;
67300;Laerm;57658;51.436;5.980;2023-05-29T00:33:50;41.25;37.67;57.05;;
67300;Laerm;57658;51.436;5.980;2023-05-29T00:34:01;40.54;36.79;53.83;;
67300;Laerm;57658;51.436;5.980;2023-05-29T00:34:11;42.66;37.03;53.88;;
67300;Laerm;57658;51.436;5.980;2023-05-29T00:34:22;42.55;36.08;55.67;;
67300;Laerm;57658;51.436;5.980;2023-05-29T00:34:33;42.32;35.11;56.21;;
67300;Laerm;57658;51.436;5.980;2023-05-29T00:34:43;38.01;34.51;46.72;;
67300;Laerm;57658;51.436;5.980;2023-05-29T00:34:54;43.80;35.27;52.83;;
67300;Laerm;57658;51.436;5.980;2023-05-29T00:35:06;39.91;34.60;49.76;;
67300;Laerm;57658;51.436;5.980;2023-05-29T00:35:16;38.85;33.71;49.05;;
67300;Laerm;57658;51.436;5.980;2023-05-29T00:35:26;38.27;34.54;49.32;;
67300;Laerm;57658;51.436;5.980;2023-05-29T00:35:37;38.29;34.17;48.79;;
67300;Laerm;57658;51.436;5.980;2023-05-29T00:35:47;36.69;33.35;44.47;;
67300;Laerm;57658;51.436;5.980;2023-05-29T00:35:57;46.27;34.45;58.28;;
67300;Laerm;57658;51.436;5.980;2023-05-29T00:36:07;46.04;36.91;53.86;;
67300;Laerm;57658;51.436;5.980;2023-05-29T00:36:18;43.28;34.38;58.06;;
67300;Laerm;57658;51.436;5.980;2023-05-29T00:36:28;48.51;35.01;61.05;;
67300;Laerm;57658;51.436;5.980;2023-05-29T00:36:39;45.67;33.99;55.18;;
67300;Laerm;57658;51.436;5.980;2023-05-29T00:36:50;44.96;33.47;62.12;;
67300;Laerm;57658;51.436;5.980;2023-05-29T00:37:00;36.18;33.26;41.66;;
67300;Laerm;57658;51.436;5.980;2023-05-29T00:37:11;36.84;34.18;45.17;;
67300;Laerm;57658;51.436;5.980;2023-05-29T00:37:22;36.09;33.76;42.61;;
67300;Laerm;57658;51.436;5.980;2023-05-29T00:37:32;36.49;34.42;40.88;;
67300;Laerm;57658;51.436;5.980;2023-05-29T00:37:42;38.20;34.44;45.45;;
67300;Laerm;57658;51.436;5.980;2023-05-29T00:37:53;39.62;36.03;48.65;;
67300;Laerm;57658;51.436;5.980;2023-05-29T00:38:03;38.51;34.66;50.59;;
67300;Laerm;57658;51.436;5.980;2023-05-29T00:38:13;40.81;35.40;52.33;;
67300;Laerm;57658;51.436;5.980;2023-05-29T00:38:23;39.74;35.09;49.87;;
67300;Laerm;57658;51.436;5.980;2023-05-29T00:38:34;48.54;36.12;58.89;;
67300;Laerm;57658;51.436;5.980;2023-05-29T00:38:44;41.95;36.04;55.60;;
67300;Laerm;57658;51.436;5.980;2023-05-29T00:38:55;53.15;40.15;65.78;;
67300;Laerm;57658;51.436;5.980;2023-05-29T00:39:05;50.64;37.23;63.06;;
67300;Laerm;57658;51.436;5.980;2023-05-29T00:39:15;46.65;36.44;57.08;;
67300;Laerm;57658;51.436;5.980;2023-05-29T00:39:27;40.18;34.49;50.31;;
67300;Laerm;57658;51.436;5.980;2023-05-29T00:39:37;35.71;33.57;42.10;;
67300;Laerm;57658;51.436;5.980;2023-05-29T00:39:50;38.84;34.26;47.55;;
67300;Laerm;57658;51.436;5.980;2023-05-29T00:40:00;36.94;34.11;45.18;;
67300;Laerm;57658;51.436;5.980;2023-05-29T00:40:10;40.96;35.05;50.21;;
67300;Laerm;57658;51.436;5.980;2023-05-29T00:40:21;38.56;33.24;46.44;;
67300;Laerm;57658;51.436;5.980;2023-05-29T00:40:31;36.13;34.00;40.29;;
67300;Laerm;57658;51.436;5.980;2023-05-29T00:40:41;39.25;35.63;43.82;;
67300;Laerm;57658;51.436;5.980;2023-05-29T00:40:52;46.36;39.68;58.09;;
67300;Laerm;57658;51.436;5.980;2023-05-29T00:41:02;47.23;38.68;62.87;;
67300;Laerm;57658;51.436;5.980;2023-05-29T00:41:15;41.56;37.39;51.33;;
67300;Laerm;57658;51.436;5.980;2023-05-29T00:41:26;37.51;35.19;44.60;;
67300;Laerm;57658;51.436;5.980;2023-05-29T00:41:36;44.69;34.92;56.83;;
67300;Laerm;57658;51.436;5.980;2023-05-29T00:41:46;41.48;34.73;50.58;;
67300;Laerm;57658;51.436;5.980;2023-05-29T00:42:00;37.75;35.63;42.16;;
67300;Laerm;57658;51.436;5.980;2023-05-29T00:42:11;40.28;36.14;52.67;;
67300;Laerm;57658;51.436;5.980;2023-05-29T00:42:21;39.31;34.68;47.59;;
67300;Laerm;57658;51.436;5.980;2023-05-29T00:42:31;40.01;33.62;54.63;;
67300;Laerm;57658;51.436;5.980;2023-05-29T00:42:42;35.66;33.59;44.19;;
67300;Laerm;57658;51.436;5.980;2023-05-29T00:42:52;35.02;33.55;41.38;;
67300;Laerm;57658;51.436;5.980;2023-05-29T00:43:02;36.70;33.48;40.82;;
67300;Laerm;57658;51.436;5.980;2023-05-29T00:43:13;38.46;33.95;44.07;;
67300;Laerm;57658;51.436;5.980;2023-05-29T00:43:23;35.92;34.21;39.39;;
67300;Laerm;57658;51.436;5.980;2023-05-29T00:43:33;36.38;34.85;40.02;;
67300;Laerm;57658;51.436;5.980;2023-05-29T00:43:44;37.05;34.99;41.69;;
67300;Laerm;57658;51.436;5.980;2023-05-29T00:43:54;35.89;34.49;37.78;;
67300;Laerm;57658;51.436;5.980;2023-05-29T00:44:04;35.07;33.25;37.37;;
67300;Laerm;57658;51.436;5.980;2023-05-29T00:44:15;34.96;32.71;38.69;;
67300;Laerm;57658;51.436;5.980;2023-05-29T00:44:25;35.20;33.26;39.88;;
67300;Laerm;57658;51.436;5.980;2023-05-29T00:44:35;34.85;32.75;41.63;;
67300;Laerm;57658;51.436;5.980;2023-05-29T00:44:46;40.51;33.33;50.96;;
67300;Laerm;57658;51.436;5.980;2023-05-29T00:44:56;41.02;35.66;50.04;;
67300;Laerm;57658;51.436;5.980;2023-05-29T00:45:06;37.52;34.47;46.36;;
67300;Laerm;57658;51.436;5.980;2023-05-29T00:45:17;37.59;34.51;42.57;;
67300;Laerm;57658;51.436;5.980;2023-05-29T00:45:28;47.70;36.91;59.13;;
67300;Laerm;57658;51.436;5.980;2023-05-29T00:45:38;43.47;38.64;54.36;;
67300;Laerm;57658;51.436;5.980;2023-05-29T00:45:48;48.62;37.92;59.30;;
67300;Laerm;57658;51.436;5.980;2023-05-29T00:45:59;39.87;36.58;50.61;;
67300;Laerm;57658;51.436;5.980;2023-05-29T00:46:10;42.20;37.70;50.30;;
67300;Laerm;57658;51.436;5.980;2023-05-29T00:46:22;52.09;38.09;64.66;;
67300;Laerm;57658;51.436;5.980;2023-05-29T00:46:33;40.87;36.26;50.97;;
67300;Laerm;57658;51.436;5.980;2023-05-29T00:46:44;38.51;36.87;44.02;;
67300;Laerm;57658;51.436;5.980;2023-05-29T00:46:54;46.04;36.88;58.38;;
67300;Laerm;57658;51.436;5.980;2023-05-29T00:47:04;48.46;36.72;58.13;;
67300;Laerm;57658;51.436;5.980;2023-05-29T00:47:15;47.07;37.73;59.64;;
67300;Laerm;57658;51.436;5.980;2023-05-29T00:47:26;41.16;37.64;46.07;;
67300;Laerm;57658;51.436;5.980;2023-05-29T00:47:36;43.54;37.63;52.78;;
67300;Laerm;57658;51.436;5.980;2023-05-29T00:47:47;45.46;36.36;55.68;;
67300;Laerm;57658;51.436;5.980;2023-05-29T00:47:57;42.91;36.19;50.48;;
67300;Laerm;57658;51.436;5.980;2023-05-29T00:48:08;46.81;37.29;57.65;;
67300;Laerm;57658;51.436;5.980;2023-05-29T00:48:18;49.85;38.22;66.33;;
67300;Laerm;57658;51.436;5.980;2023-05-29T00:48:28;46.74;39.97;60.04;;
67300;Laerm;57658;51.436;5.980;2023-05-29T00:48:39;49.53;39.30;61.59;;
67300;Laerm;57658;51.436;5.980;2023-05-29T00:48:51;50.33;39.70;62.94;;
67300;Laerm;57658;51.436;5.980;2023-05-29T00:49:03;46.91;36.26;57.71;;
67300;Laerm;57658;51.436;5.980;2023-05-29T00:49:14;44.82;34.23;60.35;;
67300;Laerm;57658;51.436;5.980;2023-05-29T00:49:26;37.95;33.53;47.35;;
67300;Laerm;57658;51.436;5.980;2023-05-29T00:49:36;43.15;36.05;52.75;;
67300;Laerm;57658;51.436;5.980;2023-05-29T00:49:47;36.09;33.84;43.76;;
67300;Laerm;57658;51.436;5.980;2023-05-29T00:50:01;35.86;33.20;44.56;;
67300;Laerm;57658;51.436;5.980;2023-05-29T00:50:11;34.42;33.37;36.28;;
67300;Laerm;57658;51.436;5.980;2023-05-29T00:50:26;35.70;33.29;46.44;;
67300;Laerm;57658;51.436;5.980;2023-05-29T00:50:37;37.96;34.44;44.98;;
67300;Laerm;57658;51.436;5.980;2023-05-29T00:50:47;46.65;35.88;58.65;;
67300;Laerm;57658;51.436;5.980;2023-05-29T00:50:58;43.99;37.07;58.57;;
67300;Laerm;57658;51.436;5.980;2023-05-29T00:51:09;43.29;39.84;53.34;;
67300;Laerm;57658;51.436;5.980;2023-05-29T00:51:21;40.61;36.50;52.43;;
67300;Laerm;57658;51.436;5.980;2023-05-29T00:51:31;37.14;35.65;41.76;;
67300;Laerm;57658;51.436;5.980;2023-05-29T00:51:42;39.35;34.36;50.35;;
67300;Laerm;57658;51.436;5.980;2023-05-29T00:51:53;50.20;35.24;65.16;;
67300;Laerm;57658;51.436;5.980;2023-05-29T00:52:05;36.54;34.64;39.03;;
67300;Laerm;57658;51.436;5.980;2023-05-29T00:52:16;37.25;35.07;40.63;;
67300;Laerm;57658;51.436;5.980;2023-05-29T00:52:27;39.34;37.03;43.86;;
67300;Laerm;57658;51.436;5.980;2023-05-29T00:52:38;40.46;37.70;45.95;;
67300;Laerm;57658;51.436;5.980;2023-05-29T00:52:49;53.13;41.08;59.76;;
67300;Laerm;57658;51.436;5.980;2023-05-29T00:53:00;51.36;40.18;59.36;;
67300;Laerm;57658;51.436;5.980;2023-05-29T00:53:11;42.45;35.97;56.82;;
67300;Laerm;57658;51.436;5.980;2023-05-29T00:53:23;37.73;34.81;42.52;;
67300;Laerm;57658;51.436;5.980;2023-05-29T00:53:33;44.31;35.72;53.21;;
67300;Laerm;57658;51.436;5.980;2023-05-29T00:53:44;52.05;39.56;63.02;;
67300;Laerm;57658;51.436;5.980;2023-05-29T00:53:55;49.34;39.62;60.45;;
67300;Laerm;57658;51.436;5.980;2023-05-29T00:54:07;41.36;38.61;46.81;;
67300;Laerm;57658;51.436;5.980;2023-05-29T00:54:20;52.45;38.79;66.76;;
67300;Laerm;57658;51.436;5.980;2023-05-29T00:54:31;46.96;36.37;60.58;;
67300;Laerm;57658;51.436;5.980;2023-05-29T00:54:42;47.18;36.40;59.81;;
67300;Laerm;57658;51.436;5.980;2023-05-29T00:54:54;39.12;34.72;53.30;;
67300;Laerm;57658;51.436;5.980;2023-05-29T00:55:04;40.19;36.35;52.15;;
67300;Laerm;57658;51.436;5.980;2023-05-29T00:55:15;43.09;37.19;57.51;;
67300;Laerm;57658;51.436;5.980;2023-05-29T00:55:25;44.83;34.76;56.09;;
67300;Laerm;57658;51.436;5.980;2023-05-29T00:55:36;40.72;35.02;51.10;;
67300;Laerm;57658;51.436;5.980;2023-05-29T00:55:47;46.32;35.98;55.68;;
67300;Laerm;57658;51.436;5.980;2023-05-29T00:55:58;43.65;37.18;56.43;;
67300;Laerm;57658;51.436;5.980;2023-05-29T00:56:09;43.37;36.62;54.79;;
67300;Laerm;57658;51.436;5.980;2023-05-29T00:56:20;41.15;36.16;50.89;;
67300;Laerm;57658;51.436;5.980;2023-05-29T00:56:31;40.31;38.02;51.43;;
67300;Laerm;57658;51.436;5.980;2023-05-29T00:56:41;43.02;38.53;52.34;;
67300;Laerm;57658;51.436;5.980;2023-05-29T00:56:56;57.67;42.04;65.72;;
67300;Laerm;57658;51.436;5.980;2023-05-29T00:57:07;48.74;42.41;53.55;;
67300;Laerm;57658;51.436;5.980;2023-05-29T00:57:17;44.07;38.32;52.63;;
67300;Laerm;57658;51.436;5.980;2023-05-29T00:57:28;47.41;38.26;56.80;;
67300;Laerm;57658;51.436;5.980;2023-05-29T00:57:38;38.73;35.30;46.20;;
67300;Laerm;57658;51.436;5.980;2023-05-29T00:57:49;37.23;34.16;46.15;;
67300;Laerm;57658;51.436;5.980;2023-05-29T00:57:59;36.78;34.13;46.76;;
67300;Laerm;57658;51.436;5.980;2023-05-29T00:58:09;35.45;33.08;43.26;;
67300;Laerm;57658;51.436;5.980;2023-05-29T00:58:20;36.04;33.77;44.88;;
67300;Laerm;57658;51.436;5.980;2023-05-29T00:58:30;35.80;33.98;40.93;;
67300;Laerm;57658;51.436;5.980;2023-05-29T00:58:41;37.76;35.14;45.38;;
67300;Laerm;57658;51.436;5.980;2023-05-29T00:58:51;42.36;36.78;54.28;;
67300;Laerm;57658;51.436;5.980;2023-05-29T00:59:02;47.05;36.66;56.82;;
67300;Laerm;57658;51.436;5.980;2023-05-29T00:59:13;43.89;36.12;57.37;;
67300;Laerm;57658;51.436;5.980;2023-05-29T00:59:25;35.55;33.55;41.58;;
67300;Laerm;57658;51.436;5.980;2023-05-29T00:59:36;36.28;33.70;41.07;;
67300;Laerm;57658;51.436;5.980;2023-05-29T00:59:47;36.58;34.55;41.26;;
67300;Laerm;57658;51.436;5.980;2023-05-29T00:59:57;37.53;34.98;41.18;;